Weather reports worldwide

Advertisment
Kew Gardens, United Kingdom (99095): temperature & dewpoint: 06.12.2019 16:00:00 - 12.12.2019 16:00:00 (GMT)Kew Gardens, United Kingdom (99095): temperature -20cm & temperature -100cm: 06.12.2019 16:00:00 - 12.12.2019 16:00:00 (GMT)Kew Gardens, United Kingdom (99095): wind speed & gusts: 06.12.2019 16:00:00 - 12.12.2019 16:00:00 (GMT)Kew Gardens, United Kingdom (99095): wind direction: 06.12.2019 16:00:00 - 12.12.2019 16:00:00 (GMT)Kew Gardens, United Kingdom (99095): sunshine duration: 06.12.2019 16:00:00 - 12.12.2019 16:00:00 (GMT)Kew Gardens, United Kingdom (99095): precipitation: 06.12.2019 16:00:00 - 12.12.2019 16:00:00 (GMT)
Date & Time tt [°C] td [°C] tt -20cm [°C] tt -100cm [°C] ff [km/h] ff [kn] fx [km/h] fx [kn] dd sd [min] rr [mm]
12.12.2019 16:00:00 - - - - - - - - - - -
12.12.2019 15:00:00 9,0 7,8 - - 11 6 - - S - 0,4
12.12.2019 14:00:00 9,1 7,8 - - 18 10 - - S - 0,0
12.12.2019 13:00:00 8,7 7,8 - - 13 7 - - S - 0,0
12.12.2019 12:00:00 7,8 7,0 - - 16 9 - - SSE - 0,2
12.12.2019 11:00:00 7,4 6,4 - - 15 8 - - S - 0,6
12.12.2019 10:00:00 5,8 4,8 - - 0 0 - - N 0 0,0
12.12.2019 09:00:00 5,3 3,8 6,0 9,2 0 0 - - N 0 0,2
12.12.2019 08:00:00 3,9 2,8 - - 0 0 - - N 0 0,0
12.12.2019 07:00:00 2,1 1,7 - - 0 0 - - N 0 0,0
12.12.2019 06:00:00 0,4 0,3 - - 0 0 - - N 0 0,0
12.12.2019 05:00:00 -1,1 -1,3 - - 0 0 - - N 0 0,0
12.12.2019 04:00:00 -0,5 -0,6 - - 0 0 - - N 0 0,0
12.12.2019 03:00:00 -0,8 -1,0 - - 0 0 - - N 0 0,0
12.12.2019 02:00:00 -0,2 -0,5 - - 0 0 - - N 0 0,0
12.12.2019 01:00:00 -0,2 -0,5 - - 0 0 - - N 0 0,0
12.12.2019 00:00:00 0,5 0,1 - - 0 0 - - N - 0,0
11.12.2019 23:00:00 1,0 0,4 - - 4 2 - - SW - 0,0
11.12.2019 22:00:00 1,9 0,9 - - 5 3 - - SW - 0,0
11.12.2019 21:00:00 2,7 1,2 - - 5 3 - - WSW - 0,0
11.12.2019 20:00:00 4,1 2,2 - - 9 5 - - W - 0,0
11.12.2019 19:00:00 4,4 2,8 - - 8 4 - - W - 0,0
11.12.2019 18:00:00 4,6 3,0 - - 5 3 - - WSW - 0,0
11.12.2019 17:00:00 6,0 3,8 - - 5 3 - - SW - 0,0
11.12.2019 16:00:00 6,4 4,0 - - 9 5 - - SW - 0,0
11.12.2019 15:00:00 6,7 4,2 - - 8 4 - - SSW - 0,0
11.12.2019 14:00:00 7,9 3,5 - - 9 5 - - SSW - 0,0
11.12.2019 13:00:00 8,7 3,6 - - 11 6 - - SSW - 0,0
11.12.2019 12:00:00 7,5 3,7 - - 9 5 - - SSW - 0,0
11.12.2019 11:00:00 8,2 5,3 - - 8 4 - - SW - 0,2
11.12.2019 10:00:00 5,0 4,8 - - 4 2 - - SSW - 0,0
11.12.2019 09:00:00 1,9 1,7 7,0 9,4 5 3 - - SSW - 0,0
11.12.2019 08:00:00 1,1 0,9 - - 5 3 - - SSW - 0,0
11.12.2019 07:00:00 1,0 0,5 - - 5 3 - - SSW - 0,0
11.12.2019 06:00:00 1,7 0,9 - - 4 2 - - SSW - 0,0
11.12.2019 05:00:00 3,6 2,3 - - 5 3 - - SSW - 0,0
11.12.2019 04:00:00 4,5 3,1 - - 8 4 - - SW - 0,0
11.12.2019 03:00:00 4,5 3,2 - - 5 3 - - SW - 0,0
11.12.2019 02:00:00 5,3 3,8 - - 8 4 - - SW - 0,0
11.12.2019 01:00:00 6,4 4,0 - - 5 3 - - WSW - 0,0
11.12.2019 00:00:00 7,3 4,8 - - 9 5 - - WSW - 0,0
10.12.2019 23:00:00 8,5 6,2 - - 11 6 - - WSW - 0,0
10.12.2019 22:00:00 8,9 7,2 - - 9 5 - - WSW - 0,2
10.12.2019 21:00:00 9,5 7,9 - - 18 10 50 27 W - 2,0
10.12.2019 20:00:00 11,6 10,6 - - 18 10 52 28 SSW - 0,2
10.12.2019 19:00:00 11,4 10,1 - - 24 13 46 25 SSW - 0,2
10.12.2019 18:00:00 10,5 9,6 - - 22 12 55 30 SSW - 0,0
10.12.2019 17:00:00 10,6 8,7 - - 24 13 59 32 SSW - 0,0
10.12.2019 16:00:00 10,4 8,6 - - 18 10 46 25 SSW - 0,0
10.12.2019 15:00:00 9,9 8,1 - - 21 11 52 28 SSW - 0,0
10.12.2019 14:00:00 9,3 7,9 - - 18 10 - - S - 0,2
10.12.2019 13:00:00 9,2 7,5 - - 22 12 - - S - 0,2
10.12.2019 12:00:00 8,9 7,2 - - 18 10 - - S - 0,2
10.12.2019 11:00:00 9,1 6,9 - - 16 9 - - S - 0,0
10.12.2019 10:00:00 9,3 6,4 - - 15 8 - - S - 0,0
10.12.2019 09:00:00 8,3 6,0 6,7 9,7 13 7 - - S - 0,0
10.12.2019 08:00:00 6,4 5,0 - - 11 6 - - S - 0,0
10.12.2019 07:00:00 3,1 3,1 - - 8 4 - - SSE - 0,0
10.12.2019 06:00:00 0,7 0,7 - - 5 3 - - SE - 0,0
10.12.2019 05:00:00 -1,3 -1,5 - - 4 2 - - S - 0,0
10.12.2019 04:00:00 -1,2 -1,4 - - 2 1 - - S - 0,0
10.12.2019 03:00:00 -1,4 -1,6 - - 2 1 - - S - 0,0
10.12.2019 02:00:00 -1,3 -1,6 - - 4 2 - - SSW - 0,0
10.12.2019 01:00:00 -1,3 -1,7 - - 2 1 - - SW - 0,0
10.12.2019 00:00:00 -0,8 -1,4 - - 2 1 - - WSW - 0,0
09.12.2019 23:00:00 -0,3 -0,9 - - 4 2 - - SW - 0,0
09.12.2019 22:00:00 -0,4 -1,1 - - 4 2 - - SSW - 0,0
09.12.2019 21:00:00 -0,2 -1,0 - - 4 2 - - WSW - 0,0
09.12.2019 20:00:00 0,5 -0,7 - - 5 3 - - W - 0,0
09.12.2019 19:00:00 2,4 -0,7 - - 5 3 - - W - 0,0
09.12.2019 18:00:00 5,5 -0,5 - - 9 5 - - WNW - 0,0
09.12.2019 17:00:00 7,2 -0,2 - - 9 5 - - NW - 0,0
09.12.2019 16:00:00 8,0 0,2 - - 15 8 - - NW - 0,0
09.12.2019 15:00:00 8,9 0,2 - - 22 12 55 30 NW - 0,0
09.12.2019 14:00:00 9,6 1,1 - - 24 13 52 28 NW - 0,0
09.12.2019 13:00:00 9,6 0,1 - - 29 16 59 32 NW - 0,0
09.12.2019 12:00:00 9,6 0,6 - - 31 17 65 35 NW - 0,0
09.12.2019 11:00:00 9,4 1,7 - - 29 16 52 28 NW - 0,0
09.12.2019 10:00:00 8,7 2,7 - - 28 15 48 26 NW - 0,0
09.12.2019 09:00:00 8,4 2,9 7,7 9,5 26 14 - - NW - 0,0
09.12.2019 08:00:00 8,3 3,1 - - 22 12 - - NW - 0,0
09.12.2019 07:00:00 8,5 4,6 - - 18 10 - - NW - 0,0
09.12.2019 06:00:00 8,5 5,3 - - 24 13 - - NW - 0,0
09.12.2019 05:00:00 8,5 5,3 - - 15 8 - - W - 0,2
09.12.2019 04:00:00 8,2 4,1 - - 9 5 - - WSW - 0,0
09.12.2019 03:00:00 7,7 3,7 - - 11 6 - - W - 0,0
09.12.2019 02:00:00 7,7 3,5 - - 16 9 - - W - 0,0
09.12.2019 01:00:00 8,0 5,3 - - 15 8 - - WSW - 0,2
09.12.2019 00:00:00 7,7 3,9 - - 9 5 - - SSW - 0,0
08.12.2019 23:00:00 7,3 3,2 - - 11 6 - - SW - 0,0
08.12.2019 22:00:00 6,7 2,6 - - 13 7 - - SW - 0,0
08.12.2019 21:00:00 6,9 2,2 - - 15 8 - - SW - 0,0
08.12.2019 20:00:00 6,8 2,5 - - 11 6 - - WSW - 0,0
08.12.2019 19:00:00 6,7 2,8 - - 13 7 - - SW - 0,0
08.12.2019 18:00:00 6,8 3,3 - - 11 6 - - WSW - 0,0
08.12.2019 17:00:00 6,7 3,5 - - 11 6 - - WSW - 0,0
08.12.2019 16:00:00 6,9 3,4 - - 13 7 - - SW - 0,0
08.12.2019 15:00:00 9,1 3,9 - - 18 10 - - WSW - 0,0
08.12.2019 14:00:00 10,1 2,7 - - 18 10 50 27 W - 0,0
08.12.2019 13:00:00 10,5 3,9 - - 21 11 46 25 W - 0,0
08.12.2019 12:00:00 11,0 4,3 - - 18 10 57 31 WSW - 0,0
08.12.2019 11:00:00 10,7 5,8 - - 15 8 - - WSW - 0,0
08.12.2019 10:00:00 10,3 5,3 - - 16 9 - - WSW - 0,0
08.12.2019 09:00:00 10,1 5,7 8,0 9,4 13 7 - - WSW - 0,0
08.12.2019 08:00:00 10,0 5,7 - - 16 9 - - W - 0,0
08.12.2019 07:00:00 10,5 5,6 - - 18 10 46 25 W - 0,0
08.12.2019 06:00:00 11,6 7,7 - - 21 11 54 29 W - 0,2
08.12.2019 05:00:00 11,6 10,5 - - 16 9 - - SW - 0,0
08.12.2019 04:00:00 11,2 9,6 - - 15 8 - - SW - 0,0
08.12.2019 03:00:00 10,5 9,4 - - 15 8 - - SSW - 1,6
08.12.2019 02:00:00 10,3 8,7 - - 15 8 - - SSW - 0,4
08.12.2019 01:00:00 11,1 8,7 - - 18 10 - - SSW - 0,0
08.12.2019 00:00:00 11,2 8,6 - - 16 9 - - SW - 0,0
07.12.2019 23:00:00 11,1 8,2 - - 13 7 - - SW - 0,0
07.12.2019 22:00:00 10,7 7,7 - - 13 7 - - SW - 0,0
07.12.2019 21:00:00 10,7 7,3 - - 13 7 - - SW - 0,0
07.12.2019 20:00:00 10,3 6,9 - - 11 6 - - SW - 0,0
07.12.2019 19:00:00 10,2 6,5 - - 11 6 - - SW - 0,0
07.12.2019 18:00:00 9,9 5,9 - - 11 6 - - SW - 0,0
07.12.2019 17:00:00 10,2 5,5 - - 8 4 - - SW - 0,0
07.12.2019 16:00:00 10,4 5,6 - - 9 5 - - SW - 0,0
07.12.2019 15:00:00 10,5 5,7 - - 9 5 - - SW - 0,0
07.12.2019 14:00:00 10,4 5,8 - - 11 6 - - SW - 0,0
07.12.2019 13:00:00 10,5 5,8 - - 9 5 - - WSW - 0,0
07.12.2019 12:00:00 10,3 6,2 - - 11 6 - - WSW - 0,0
07.12.2019 11:00:00 9,5 6,6 - - 8 4 - - SW - 0,0
07.12.2019 10:00:00 8,6 6,3 - - 4 2 - - WSW - 0,0
07.12.2019 09:00:00 7,9 5,9 7,5 9,2 8 4 - - WSW - 0,0
07.12.2019 08:00:00 7,3 5,7 - - 8 4 - - SW - 0,0
07.12.2019 07:00:00 6,3 4,8 - - 4 2 - - WNW - 0,0
07.12.2019 06:00:00 6,4 4,6 - - 5 3 - - SW - 0,0
07.12.2019 05:00:00 8,1 5,2 - - 9 5 - - W - 0,0
07.12.2019 04:00:00 9,3 5,0 - - 9 5 - - W - 0,0
07.12.2019 03:00:00 9,4 5,7 - - 11 6 - - W - 0,0
07.12.2019 02:00:00 9,4 5,5 - - 13 7 - - W - 0,0
07.12.2019 01:00:00 9,1 5,8 - - 9 5 - - WSW - 0,0
07.12.2019 00:00:00 8,3 5,9 - - 13 7 - - W - 0,0
06.12.2019 23:00:00 8,2 5,6 - - 11 6 - - WSW - 0,0
06.12.2019 22:00:00 8,7 5,6 - - 8 4 - - WSW - 0,0
06.12.2019 21:00:00 10,3 6,2 - - 13 7 - - W - 0,0
06.12.2019 20:00:00 10,3 6,9 - - 15 8 - - W - 0,0
06.12.2019 19:00:00 10,3 6,9 - - 15 8 - - W - 0,0
06.12.2019 18:00:00 10,6 7,1 - - 18 10 - - W - 0,0
06.12.2019 17:00:00 11,0 8,2 - - 18 10 - - W - 0,0
06.12.2019 16:00:00 11,5 9,1 - - 21 11 48 26 WSW - 0,2

tt = temperature
td = dewpoint
tt -20cm = temperature -20cm
tt -100cm = temperature -100cm
ff = wind speed
fx = gusts
dd = wind direction
sd = sunshine duration
rr = precipitation

Next stations